Time;durP1;ratioP1;P1;durP2;ratioP2;P2;SDS_P1;SDS_P2;PMS_P1;PMS_P2;Temp;Humidity;BMP_temperature;BMP_pressure;BME280_temperature;BME280_humidity;BME280_pressure;Samples;Min_cycle;Max_cycle;Signal;HPM_P1;HPM_P2
2023/10/31 00:01:49;;;;;;;31.80;24.50;;;11.60;99.90;;;;;;5034380;28;20037;-73
2023/10/31 00:04:15;;;;;;;29.95;22.92;;;11.50;99.90;;;;;;5034576;28;20050;-73
2023/10/31 00:06:41;;;;;;;32.97;25.45;;;11.50;99.90;;;;;;5017468;28;20099;-73
2023/10/31 00:09:06;;;;;;;36.00;27.15;;;11.60;99.90;;;;;;5034318;28;20045;-73
2023/10/31 00:11:32;;;;;;;39.17;27.73;;;11.60;99.90;;;;;;5033845;28;20101;-73
2023/10/31 00:13:58;;;;;;;36.97;27.20;;;11.60;99.90;;;;;;5033640;28;20053;-73
2023/10/31 00:16:24;;;;;;;31.38;25.08;;;11.60;99.90;;;;;;5033774;28;20095;-73
2023/10/31 00:18:49;;;;;;;38.33;27.13;;;11.60;99.90;;;;;;5034362;28;20386;-68
2023/10/31 00:21:15;;;;;;;31.83;24.80;;;11.60;99.90;;;;;;5017194;28;20120;-68
2023/10/31 00:23:45;;;;;;;33.40;26.35;;;11.60;99.90;;;;;;5033967;28;20130;-68
2023/10/31 00:26:12;;;;;;;32.63;25.30;;;11.60;99.90;;;;;;5017253;28;20050;-69
2023/10/31 00:28:37;;;;;;;33.70;26.98;;;11.60;99.90;;;;;;5033844;28;20089;-68
2023/10/31 00:31:07;;;;;;;34.70;26.35;;;11.60;99.90;;;;;;5033573;28;20073;-68
2023/10/31 00:33:37;;;;;;;33.58;25.75;;;11.60;99.90;;;;;;5033383;28;20049;-68
2023/10/31 00:36:03;;;;;;;29.70;24.13;;;11.70;99.90;;;;;;5033866;28;20490;-68
2023/10/31 00:38:29;;;;;;;34.75;26.13;;;11.70;99.90;;;;;;5033596;28;20401;-68
2023/10/31 00:40:55;;;;;;;35.60;26.98;;;11.70;99.90;;;;;;5033380;28;20037;-67
2023/10/31 00:43:21;;;;;;;33.25;25.95;;;11.70;99.90;;;;;;5033312;28;20090;-68
2023/10/31 00:45:46;;;;;;;34.72;26.38;;;11.70;99.90;;;;;;5033551;28;20033;-68
2023/10/31 00:48:12;;;;;;;40.33;28.95;;;11.60;99.90;;;;;;5033154;28;20048;-68
2023/10/31 00:50:38;;;;;;;36.65;27.80;;;11.70;99.90;;;;;;5016811;28;20042;-68
2023/10/31 00:53:03;;;;;;;35.80;27.13;;;11.70;99.90;;;;;;5033161;28;20387;-68
2023/10/31 00:55:29;;;;;;;36.10;27.65;;;11.70;99.90;;;;;;5033152;28;20095;-68
2023/10/31 00:57:55;;;;;;;47.00;29.60;;;11.70;99.90;;;;;;5033036;28;20472;-68
2023/10/31 01:00:21;;;;;;;39.72;30.10;;;11.70;99.90;;;;;;5016741;28;20044;-68
2023/10/31 01:02:46;;;;;;;39.03;29.50;;;11.70;99.90;;;;;;5016482;28;20037;-68
2023/10/31 01:05:12;;;;;;;38.60;28.98;;;11.70;99.90;;;;;;5032842;28;20069;-68
2023/10/31 01:07:38;;;;;;;35.97;27.73;;;11.70;99.90;;;;;;5032980;28;20462;-68
2023/10/31 01:10:04;;;;;;;76.05;34.67;;;11.70;99.90;;;;;;5049428;28;20080;-68
2023/10/31 01:12:30;;;;;;;38.78;28.40;;;11.70;99.90;;;;;;5032511;28;20136;-68
2023/10/31 01:14:56;;;;;;;34.83;26.83;;;11.70;99.90;;;;;;5032653;28;20045;-68
2023/10/31 01:17:22;;;;;;;33.45;26.73;;;11.70;99.90;;;;;;5032757;28;20449;-69
2023/10/31 01:19:48;;;;;;;27.75;23.92;;;11.60;99.90;;;;;;5032890;28;20033;-69
2023/10/31 01:22:14;;;;;;;41.72;29.27;;;11.70;99.90;;;;;;5016080;28;20037;-69
2023/10/31 01:24:40;;;;;;;32.30;27.25;;;11.70;99.90;;;;;;5016437;28;20379;-69
2023/10/31 01:27:05;;;;;;;33.50;27.05;;;11.70;99.90;;;;;;5033706;28;20068;-69
2023/10/31 01:29:31;;;;;;;36.05;28.65;;;11.70;99.90;;;;;;5032932;28;20466;-73
2023/10/31 01:31:57;;;;;;;29.35;24.88;;;11.70;99.90;;;;;;5032308;28;20042;-72
2023/10/31 01:34:23;;;;;;;29.42;23.17;;;11.70;99.90;;;;;;5032312;28;20049;-73
2023/10/31 01:36:49;;;;;;;37.17;28.73;;;11.70;99.90;;;;;;5032688;28;20041;-73
2023/10/31 01:39:14;;;;;;;29.65;24.63;;;11.70;99.90;;;;;;5032271;28;20083;-73
2023/10/31 01:41:43;;;;;;;30.88;25.15;;;11.70;99.90;;;;;;5032345;28;20042;-73
2023/10/31 01:44:10;;;;;;;28.95;24.20;;;11.70;99.90;;;;;;5015703;28;20076;-73
2023/10/31 01:46:36;;;;;;;32.03;25.73;;;11.70;99.90;;;;;;5031859;28;20041;-73
2023/10/31 01:49:02;;;;;;;21.73;18.58;;;11.70;99.90;;;;;;5015732;28;20051;-73
2023/10/31 01:51:29;;;;;;;9.60;6.90;;;11.70;99.90;;;;;;5015712;28;20045;-73
2023/10/31 01:53:56;;;;;;;9.15;6.20;;;11.70;99.90;;;;;;5032133;28;20037;-73
2023/10/31 01:56:23;;;;;;;5.70;3.58;;;11.60;99.90;;;;;;5032225;28;20045;-73
2023/10/31 01:58:49;;;;;;;4.38;2.10;;;11.50;99.90;;;;;;5032083;28;20038;-73
2023/10/31 02:01:15;;;;;;;4.00;1.90;;;11.40;99.90;;;;;;5032060;28;20033;-73
2023/10/31 02:03:41;;;;;;;3.60;1.40;;;11.30;99.90;;;;;;5032087;28;20045;-73
2023/10/31 02:06:07;;;;;;;3.47;1.38;;;11.20;99.90;;;;;;5031938;28;20042;-73
2023/10/31 02:08:33;;;;;;;3.40;1.40;;;11.10;99.90;;;;;;5031956;28;20048;-73
2023/10/31 02:10:59;;;;;;;1.52;0.70;;;11.00;99.90;;;;;;5031835;28;20051;-73
2023/10/31 02:13:25;;;;;;;1.48;0.60;;;10.90;99.90;;;;;;5031677;28;20057;-73
2023/10/31 02:15:51;;;;;;;1.90;0.60;;;10.90;99.90;;;;;;5032281;28;20405;-73
2023/10/31 02:18:17;;;;;;;1.10;0.70;;;10.80;99.90;;;;;;5031813;28;20041;-74
2023/10/31 02:20:44;;;;;;;2.55;0.65;;;10.80;99.90;;;;;;5015556;28;20045;-73
2023/10/31 02:23:09;;;;;;;2.63;0.90;;;10.70;99.90;;;;;;5015747;28;20041;-73
2023/10/31 02:25:35;;;;;;;2.35;0.70;;;10.70;99.90;;;;;;5031664;28;20118;-74
2023/10/31 02:28:01;;;;;;;2.03;0.60;;;10.70;99.90;;;;;;5031910;28;20045;-72
2023/10/31 02:30:27;;;;;;;2.38;0.70;;;10.60;99.90;;;;;;5032089;28;20049;-73
2023/10/31 02:32:53;;;;;;;2.08;0.70;;;10.50;99.90;;;;;;5031598;28;20050;-73
2023/10/31 02:35:20;;;;;;;2.30;0.80;;;10.50;99.90;;;;;;5015307;28;20037;-73
2023/10/31 02:37:46;;;;;;;2.70;0.80;;;10.50;99.90;;;;;;5032024;28;20474;-69
2023/10/31 02:40:12;;;;;;;4.13;0.85;;;10.40;99.90;;;;;;5031543;28;20041;-69
2023/10/31 02:42:38;;;;;;;3.83;1.00;;;10.40;99.90;;;;;;5031577;28;20052;-69
2023/10/31 02:45:04;;;;;;;3.90;0.85;;;10.40;99.90;;;;;;5031556;28;20471;-69
2023/10/31 02:47:30;;;;;;;4.32;1.10;;;10.40;99.90;;;;;;5031512;28;20041;-69
2023/10/31 02:49:56;;;;;;;4.25;1.10;;;10.40;99.90;;;;;;5031808;28;20060;-69
2023/10/31 02:52:22;;;;;;;4.60;1.15;;;10.40;99.90;;;;;;5031470;28;20107;-68
2023/10/31 02:54:48;;;;;;;4.10;1.30;;;10.30;99.90;;;;;;5031334;28;20080;-68
2023/10/31 02:57:14;;;;;;;4.63;1.30;;;10.30;99.90;;;;;;5031804;28;20049;-68
2023/10/31 02:59:40;;;;;;;4.35;1.23;;;10.30;99.90;;;;;;5035390;28;20042;-69
2023/10/31 03:02:05;;;;;;;3.65;1.20;;;10.30;99.90;;;;;;5035529;28;20037;-69
2023/10/31 03:04:31;;;;;;;4.32;1.05;;;10.30;99.90;;;;;;5035253;28;20105;-69
2023/10/31 03:06:57;;;;;;;4.78;1.08;;;10.40;99.90;;;;;;5018631;28;20191;-68
2023/10/31 03:09:22;;;;;;;4.30;1.00;;;10.40;99.90;;;;;;5035105;28;20041;-69
2023/10/31 03:11:48;;;;;;;4.45;1.00;;;10.30;99.90;;;;;;5051824;28;20064;-68
2023/10/31 03:14:14;;;;;;;5.47;1.20;;;10.30;99.90;;;;;;5034978;28;20075;-68
2023/10/31 03:16:39;;;;;;;4.25;1.10;;;10.30;99.90;;;;;;5034943;28;20450;-68
2023/10/31 03:19:05;;;;;;;5.13;1.10;;;10.20;99.90;;;;;;5034871;28;20037;-68
2023/10/31 03:21:31;;;;;;;4.82;1.30;;;10.20;99.90;;;;;;5034801;28;20129;-68
2023/10/31 03:23:57;;;;;;;3.28;1.15;;;10.20;99.90;;;;;;5018431;28;20045;-68
2023/10/31 03:26:23;;;;;;;4.85;1.40;;;10.20;99.90;;;;;;5051517;28;20033;-68
2023/10/31 03:28:49;;;;;;;5.47;1.65;;;10.20;99.90;;;;;;5034719;28;20038;-68
2023/10/31 03:31:16;;;;;;;5.70;1.55;;;10.20;99.90;;;;;;5034767;28;20041;-68
2023/10/31 03:33:42;;;;;;;5.32;1.67;;;10.20;99.90;;;;;;5034598;28;20041;-68
2023/10/31 03:36:09;;;;;;;5.95;1.90;;;10.20;99.90;;;;;;5034949;28;20069;-68
2023/10/31 03:38:35;;;;;;;5.78;2.58;;;10.20;99.90;;;;;;5034921;28;20049;-68
2023/10/31 03:41:02;;;;;;;6.45;2.53;;;10.20;99.90;;;;;;5034601;28;20059;-68
2023/10/31 03:43:27;;;;;;;8.27;3.22;;;10.20;99.90;;;;;;5034496;28;20037;-68
2023/10/31 03:45:54;;;;;;;7.22;3.20;;;10.20;99.90;;;;;;5034445;28;20107;-68
2023/10/31 03:48:20;;;;;;;6.97;3.25;;;10.20;99.90;;;;;;5034847;28;20087;-72
2023/10/31 03:50:45;;;;;;;8.98;4.13;;;10.20;99.90;;;;;;5034343;28;20084;-72
2023/10/31 03:53:11;;;;;;;10.88;3.90;;;10.20;99.90;;;;;;5034162;28;20077;-72
2023/10/31 03:55:37;;;;;;;10.25;4.20;;;10.20;99.90;;;;;;5034301;28;20048;-72
2023/10/31 03:58:03;;;;;;;10.52;4.30;;;10.20;99.90;;;;;;5034386;28;20377;-72
2023/10/31 04:00:29;;;;;;;9.98;4.22;;;10.20;99.90;;;;;;5034502;28;20041;-72
2023/10/31 04:02:55;;;;;;;8.68;3.95;;;10.20;99.90;;;;;;5033999;28;20037;-72
2023/10/31 04:05:22;;;;;;;9.50;3.67;;;10.20;99.90;;;;;;5034029;28;20045;-72
2023/10/31 04:07:48;;;;;;;7.28;3.90;;;10.20;99.90;;;;;;5033979;28;20042;-72
2023/10/31 04:10:15;;;;;;;8.63;3.95;;;10.20;99.90;;;;;;5017125;28;20064;-72
2023/10/31 04:12:41;;;;;;;7.50;3.60;;;10.20;99.90;;;;;;5033705;28;20072;-72
2023/10/31 04:15:08;;;;;;;7.68;3.35;;;10.20;99.90;;;;;;5033901;28;20048;-72
2023/10/31 04:17:34;;;;;;;8.07;3.80;;;10.20;99.90;;;;;;5033806;28;20041;-72
2023/10/31 04:20:00;;;;;;;8.57;3.40;;;10.20;99.90;;;;;;5033757;28;20120;-72
2023/10/31 04:22:26;;;;;;;9.07;3.35;;;10.20;99.90;;;;;;5033840;28;20079;-72
2023/10/31 04:24:52;;;;;;;8.13;3.20;;;10.20;99.90;;;;;;5033711;28;20045;-72
2023/10/31 04:27:18;;;;;;;7.18;3.20;;;10.20;99.90;;;;;;5033712;28;20041;-72
2023/10/31 04:29:44;;;;;;;6.93;3.15;;;10.20;99.90;;;;;;5033964;28;20196;-72
2023/10/31 04:32:10;;;;;;;7.47;3.13;;;10.20;99.90;;;;;;5033845;28;20084;-72
2023/10/31 04:34:35;;;;;;;7.15;3.70;;;10.20;99.90;;;;;;5033600;28;20076;-72
2023/10/31 04:37:02;;;;;;;7.07;3.13;;;10.20;99.90;;;;;;5033501;28;20046;-72
2023/10/31 04:39:27;;;;;;;6.65;3.08;;;10.20;99.90;;;;;;5033501;28;20041;-72
2023/10/31 04:41:53;;;;;;;6.13;2.90;;;10.20;99.90;;;;;;5016952;28;20104;-72
2023/10/31 04:44:19;;;;;;;6.95;3.20;;;10.20;99.90;;;;;;5033683;28;20402;-72
2023/10/31 04:46:45;;;;;;;8.20;2.97;;;10.20;99.90;;;;;;5033371;28;20045;-72
2023/10/31 04:49:10;;;;;;;5.72;2.65;;;10.20;99.90;;;;;;5033314;28;20045;-72
2023/10/31 04:51:37;;;;;;;5.55;2.22;;;10.20;99.90;;;;;;5033154;28;20138;-72
2023/10/31 04:54:04;;;;;;;4.57;1.75;;;10.20;99.90;;;;;;5033392;28;20049;-72
2023/10/31 04:56:30;;;;;;;4.60;1.80;;;10.30;99.90;;;;;;5033133;28;20042;-72
2023/10/31 04:58:56;;;;;;;5.10;1.70;;;10.20;99.90;;;;;;5033269;28;20034;-72
2023/10/31 05:01:22;;;;;;;4.45;1.75;;;10.20;99.90;;;;;;5033393;28;20060;-72
2023/10/31 05:03:47;;;;;;;4.15;1.48;;;10.20;99.90;;;;;;5033169;28;20041;-72
2023/10/31 05:06:13;;;;;;;5.45;1.70;;;10.20;99.90;;;;;;5032866;28;20410;-72
2023/10/31 05:08:39;;;;;;;5.63;1.90;;;10.30;99.90;;;;;;5016581;28;20045;-72
2023/10/31 05:11:04;;;;;;;5.53;1.98;;;10.30;99.90;;;;;;5033183;28;20136;-72
2023/10/31 05:13:30;;;;;;;5.55;1.83;;;10.30;99.90;;;;;;5032582;28;20061;-72
2023/10/31 05:15:58;;;;;;;5.28;1.90;;;10.30;99.90;;;;;;5016489;28;20049;-73
2023/10/31 05:18:24;;;;;;;4.18;1.80;;;10.40;99.90;;;;;;5032704;28;20045;-72
2023/10/31 05:20:50;;;;;;;5.82;1.90;;;10.30;99.90;;;;;;5032207;28;20060;-72
2023/10/31 05:23:16;;;;;;;5.78;1.90;;;10.30;99.90;;;;;;5032873;28;20045;-72
2023/10/31 05:25:41;;;;;;;5.53;1.83;;;10.30;99.90;;;;;;5032893;28;20052;-72
2023/10/31 05:28:07;;;;;;;6.70;1.83;;;10.30;99.90;;;;;;5032565;28;20128;-72
2023/10/31 05:30:33;;;;;;;6.55;2.03;;;10.30;99.90;;;;;;5032798;28;20132;-72
2023/10/31 05:32:58;;;;;;;6.68;1.90;;;10.30;99.90;;;;;;5016000;28;20077;-72
2023/10/31 05:35:25;;;;;;;6.38;1.88;;;10.30;99.90;;;;;;5032449;28;20124;-72
2023/10/31 05:37:50;;;;;;;6.60;1.92;;;10.30;99.90;;;;;;5032377;28;20041;-72
2023/10/31 05:40:16;;;;;;;5.03;1.80;;;10.30;99.90;;;;;;5032236;28;20095;-72
2023/10/31 05:42:42;;;;;;;5.00;1.73;;;10.30;99.90;;;;;;5032545;28;20033;-72
2023/10/31 05:45:08;;;;;;;6.80;1.83;;;10.20;99.90;;;;;;5048939;28;20095;-71
2023/10/31 05:47:34;;;;;;;6.40;1.92;;;10.20;99.90;;;;;;5016315;28;20468;-72
2023/10/31 05:50:00;;;;;;;6.25;1.85;;;10.20;99.90;;;;;;5015824;28;20192;-72
2023/10/31 05:52:32;;;;;;;5.72;2.10;;;10.20;99.90;;;;;;5032194;28;20041;-72
2023/10/31 05:54:58;;;;;;;4.60;1.70;;;10.20;99.90;;;;;;5032072;28;20049;-72
2023/10/31 05:57:24;;;;;;;5.70;1.90;;;10.20;99.90;;;;;;5032368;28;20497;-73
2023/10/31 05:59:50;;;;;;;6.22;1.90;;;10.20;99.90;;;;;;5032099;28;20045;-73
2023/10/31 06:02:15;;;;;;;6.53;1.85;;;10.20;99.90;;;;;;5033200;28;20040;-72
2023/10/31 06:04:41;;;;;;;7.32;2.05;;;10.20;99.90;;;;;;5032029;28;20049;-72
2023/10/31 06:07:07;;;;;;;6.22;1.88;;;10.20;99.90;;;;;;5032266;28;20396;-72
2023/10/31 06:09:33;;;;;;;6.50;1.60;;;10.20;99.90;;;;;;5032125;28;20049;-72
2023/10/31 06:12:02;;;;;;;7.43;1.88;;;10.20;99.90;;;;;;5031796;28;20119;-72
2023/10/31 06:14:28;;;;;;;7.53;1.63;;;10.10;99.90;;;;;;5031883;28;20144;-72
2023/10/31 06:16:54;;;;;;;7.05;2.10;;;10.20;99.90;;;;;;5031812;28;20467;-72
2023/10/31 06:19:20;;;;;;;6.57;2.08;;;10.20;99.90;;;;;;5015436;28;20038;-73
2023/10/31 06:21:46;;;;;;;6.07;2.08;;;10.20;99.90;;;;;;5031788;28;20041;-72
2023/10/31 06:24:11;;;;;;;7.25;2.40;;;10.20;99.90;;;;;;5031776;28;20053;-72
2023/10/31 06:26:37;;;;;;;6.00;2.45;;;10.10;99.90;;;;;;5031802;28;20386;-72
2023/10/31 06:29:03;;;;;;;6.93;3.08;;;10.20;99.90;;;;;;5031768;28;20064;-73
2023/10/31 06:31:29;;;;;;;6.82;2.83;;;10.20;99.90;;;;;;5032631;28;20091;-72
2023/10/31 06:33:55;;;;;;;6.38;2.75;;;10.20;99.90;;;;;;5035773;28;20045;-72
2023/10/31 06:36:20;;;;;;;6.82;3.00;;;10.20;99.90;;;;;;5036038;28;20041;-72
2023/10/31 06:38:46;;;;;;;6.90;3.15;;;10.10;99.90;;;;;;5035937;28;20041;-73
2023/10/31 06:41:12;;;;;;;6.35;2.83;;;10.20;99.90;;;;;;5035901;28;20048;-72
2023/10/31 06:43:37;;;;;;;6.57;3.17;;;10.20;99.90;;;;;;5035664;28;20045;-73
2023/10/31 06:46:05;;;;;;;6.05;2.90;;;10.20;99.90;;;;;;5019049;28;20088;-72
2023/10/31 06:48:30;;;;;;;7.70;2.92;;;10.20;99.90;;;;;;5035867;28;20115;-72
2023/10/31 06:50:56;;;;;;;6.18;2.78;;;10.20;99.90;;;;;;5035419;28;20045;-72
2023/10/31 06:53:22;;;;;;;6.10;2.90;;;10.20;99.90;;;;;;5035735;28;20471;-72
2023/10/31 06:55:48;;;;;;;7.15;2.92;;;10.20;99.90;;;;;;5035549;28;20068;-72
2023/10/31 06:58:14;;;;;;;6.03;2.92;;;10.10;99.90;;;;;;5018980;28;20095;-72
2023/10/31 07:00:39;;;;;;;7.95;3.20;;;10.20;99.90;;;;;;5035379;28;20041;-72
2023/10/31 07:03:09;;;;;;;9.00;3.35;;;10.10;99.90;;;;;;5035316;28;20033;-72
2023/10/31 07:05:36;;;;;;;6.72;3.03;;;10.20;99.90;;;;;;5035314;28;20115;-71
2023/10/31 07:08:03;;;;;;;8.68;3.10;;;10.20;99.90;;;;;;5035260;28;20095;-72
2023/10/31 07:10:29;;;;;;;6.70;3.15;;;10.20;99.90;;;;;;5035146;28;20041;-72
2023/10/31 07:12:55;;;;;;;6.43;2.92;;;10.20;99.90;;;;;;5035033;28;20064;-72
2023/10/31 07:15:21;;;;;;;6.25;3.05;;;10.30;99.90;;;;;;5035356;28;20413;-72
2023/10/31 07:17:47;;;;;;;7.82;3.40;;;10.20;99.90;;;;;;5018746;28;20033;-69
2023/10/31 07:20:13;;;;;;;8.88;3.20;;;10.30;99.90;;;;;;5034970;28;20042;-68
2023/10/31 07:22:39;;;;;;;8.18;3.80;;;10.20;99.90;;;;;;5035001;28;20037;-68
2023/10/31 07:25:06;;;;;;;7.30;4.03;;;10.20;99.90;;;;;;5035222;28;20077;-69
2023/10/31 07:27:32;;;;;;;8.75;4.00;;;10.30;99.90;;;;;;5035223;28;20064;-68
2023/10/31 07:29:58;;;;;;;9.05;4.85;;;10.30;99.90;;;;;;5034869;28;20464;-68
2023/10/31 07:32:24;;;;;;;8.32;4.30;;;10.30;99.90;;;;;;5034802;28;20131;-68
2023/10/31 07:34:50;;;;;;;10.38;5.40;;;10.30;99.90;;;;;;5034733;28;20418;-68
2023/10/31 07:37:16;;;;;;;8.55;4.63;;;10.30;99.90;;;;;;5034686;28;20044;-68
2023/10/31 07:39:42;;;;;;;8.25;5.30;;;10.30;99.90;;;;;;5034551;28;20038;-68
2023/10/31 07:42:07;;;;;;;11.20;6.13;;;10.40;99.90;;;;;;5034745;28;20103;-68
2023/10/31 07:44:34;;;;;;;10.85;5.80;;;10.40;99.90;;;;;;5033648;28;20072;-68
2023/10/31 07:46:59;;;;;;;13.45;6.55;;;10.40;99.90;;;;;;5034796;28;20493;-68
2023/10/31 07:49:25;;;;;;;10.13;6.53;;;10.40;99.90;;;;;;5034657;28;20044;-68
2023/10/31 07:51:51;;;;;;;11.25;6.90;;;10.40;99.90;;;;;;5034361;28;20045;-67
2023/10/31 07:54:17;;;;;;;9.88;6.63;;;10.40;99.90;;;;;;5034422;28;20052;-68
2023/10/31 07:56:42;;;;;;;11.30;6.85;;;10.40;99.90;;;;;;5034230;28;20046;-69
2023/10/31 07:59:09;;;;;;;11.27;6.80;;;10.40;99.90;;;;;;5034220;28;20455;-68
2023/10/31 08:01:35;;;;;;;12.55;8.10;;;10.50;99.90;;;;;;5034227;28;20037;-69
2023/10/31 08:04:01;;;;;;;13.52;7.82;;;10.50;99.90;;;;;;5017902;28;20107;-68
2023/10/31 08:06:27;;;;;;;9.48;6.97;;;10.50;99.90;;;;;;5034038;28;20041;-68
2023/10/31 08:08:52;;;;;;;12.15;7.75;;;10.50;99.90;;;;;;5034066;28;20064;-69
2023/10/31 08:11:18;;;;;;;12.90;8.40;;;10.60;99.90;;;;;;5034087;28;20175;-69
2023/10/31 08:13:44;;;;;;;9.95;7.20;;;10.70;99.90;;;;;;5017200;28;20077;-68
2023/10/31 08:16:10;;;;;;;10.10;7.05;;;10.70;99.90;;;;;;5033943;28;20048;-68
2023/10/31 08:18:35;;;;;;;10.25;7.10;;;10.80;99.90;;;;;;5033926;28;20041;-69
2023/10/31 08:21:02;;;;;;;9.77;5.93;;;10.80;99.90;;;;;;5033838;28;20091;-68
2023/10/31 08:23:29;;;;;;;9.07;6.20;;;10.90;99.90;;;;;;5033870;28;20050;-68
2023/10/31 08:25:55;;;;;;;8.57;5.82;;;10.90;99.90;;;;;;5034012;28;20053;-69
2023/10/31 08:28:20;;;;;;;9.43;5.72;;;11.00;99.90;;;;;;5033795;28;20045;-72
2023/10/31 08:30:46;;;;;;;9.57;5.28;;;11.00;99.90;;;;;;5033831;28;20102;-72
2023/10/31 08:33:12;;;;;;;9.00;4.75;;;11.10;99.90;;;;;;5033597;28;20091;-72
2023/10/31 08:35:38;;;;;;;8.82;4.63;;;11.20;99.90;;;;;;5033600;28;20045;-71
2023/10/31 08:38:04;;;;;;;7.75;4.03;;;11.20;99.90;;;;;;5017312;28;20041;-71
2023/10/31 08:40:29;;;;;;;7.32;3.88;;;11.30;99.90;;;;;;5017412;28;20037;-72
2023/10/31 08:42:55;;;;;;;7.60;3.85;;;11.30;99.90;;;;;;5033358;28;20037;-73
2023/10/31 08:45:21;;;;;;;5.57;2.65;;;11.40;99.90;;;;;;5033341;28;20033;-72
2023/10/31 08:47:47;;;;;;;8.57;2.42;;;11.40;99.90;;;;;;5016860;28;20041;-73
2023/10/31 08:50:13;;;;;;;6.32;2.78;;;11.40;99.90;;;;;;5016833;28;20041;-72
2023/10/31 08:52:39;;;;;;;5.13;2.17;;;11.50;99.90;;;;;;5033602;28;20042;-72
2023/10/31 08:55:06;;;;;;;8.05;2.00;;;11.50;99.90;;;;;;5032983;28;20498;-71
2023/10/31 08:57:33;;;;;;;6.88;2.22;;;11.50;99.90;;;;;;5033178;28;20041;-72
2023/10/31 08:59:59;;;;;;;4.82;1.60;;;11.60;99.90;;;;;;5033133;28;20119;-72
2023/10/31 09:02:25;;;;;;;5.20;1.70;;;11.70;99.90;;;;;;5033033;28;20128;-72
2023/10/31 09:04:51;;;;;;;6.57;1.55;;;11.70;99.90;;;;;;5033183;28;20135;-72
2023/10/31 09:07:16;;;;;;;6.63;1.70;;;11.70;99.90;;;;;;5032971;28;20049;-72
2023/10/31 09:09:42;;;;;;;6.60;1.42;;;11.80;99.90;;;;;;5016782;28;20045;-72
2023/10/31 09:12:09;;;;;;;6.50;1.35;;;11.90;99.90;;;;;;5016319;28;20062;-72
2023/10/31 09:14:35;;;;;;;6.30;1.55;;;11.90;99.90;;;;;;5032893;28;20128;-72
2023/10/31 09:17:01;;;;;;;8.43;1.60;;;11.90;99.90;;;;;;5033088;28;20048;-72
2023/10/31 09:19:27;;;;;;;6.35;1.40;;;11.90;99.90;;;;;;5032693;28;20033;-73
2023/10/31 09:21:53;;;;;;;6.07;1.27;;;12.00;99.90;;;;;;5032963;28;20390;-72
2023/10/31 09:24:18;;;;;;;6.72;1.17;;;12.00;99.90;;;;;;5032738;28;20045;-73
2023/10/31 09:26:44;;;;;;;7.10;1.10;;;12.10;99.90;;;;;;5032561;28;20477;-72
2023/10/31 09:29:13;;;;;;;5.72;1.38;;;12.10;99.90;;;;;;5032690;28;20045;-72
2023/10/31 09:31:39;;;;;;;6.95;1.27;;;12.00;99.90;;;;;;5016243;28;20049;-73
2023/10/31 09:34:04;;;;;;;5.85;1.10;;;12.10;99.90;;;;;;5032421;28;20042;-73
2023/10/31 09:36:36;;;;;;;4.15;1.10;;;12.10;99.90;;;;;;5032517;28;20037;-73
2023/10/31 09:39:03;;;;;;;5.95;1.20;;;12.10;99.90;;;;;;5032874;28;20056;-69
2023/10/31 09:41:30;;;;;;;6.53;1.15;;;12.10;99.90;;;;;;5032392;28;20049;-69
2023/10/31 09:43:56;;;;;;;6.93;1.15;;;12.00;99.90;;;;;;5032533;28;20072;-69
2023/10/31 09:46:22;;;;;;;4.30;1.10;;;12.00;99.90;;;;;;5032665;28;20135;-69
2023/10/31 09:48:49;;;;;;;6.07;1.10;;;12.00;99.90;;;;;;5032157;28;20064;-68
2023/10/31 09:51:15;;;;;;;4.38;1.00;;;12.00;99.90;;;;;;5015787;28;20045;-68
2023/10/31 09:53:43;;;;;;;5.22;0.90;;;12.00;99.90;;;;;;5032130;28;20053;-68
2023/10/31 09:56:09;;;;;;;4.40;1.02;;;11.90;99.90;;;;;;5032267;28;20046;-67
2023/10/31 09:58:35;;;;;;;4.45;1.05;;;12.00;99.90;;;;;;5032448;28;20041;-67
2023/10/31 10:01:01;;;;;;;5.05;1.10;;;11.90;99.90;;;;;;5032030;28;20046;-68
2023/10/31 10:03:27;;;;;;;4.65;1.00;;;11.80;99.90;;;;;;5032293;28;20038;-67
2023/10/31 10:05:53;;;;;;;5.55;0.90;;;11.90;99.90;;;;;;5032004;28;20037;-68
2023/10/31 10:08:22;;;;;;;3.45;0.82;;;11.80;99.90;;;;;;5015217;28;20037;-67
2023/10/31 10:10:49;;;;;;;5.65;0.95;;;11.80;99.90;;;;;;5031894;28;20037;-68
2023/10/31 10:13:18;;;;;;;7.57;1.10;;;11.80;99.90;;;;;;5031788;28;20114;-68
2023/10/31 10:15:49;;;;;;;6.45;1.08;;;11.80;99.90;;;;;;5031993;28;20041;-68
2023/10/31 10:18:28;;;;;;;5.53;0.90;;;11.80;99.90;;;;;;5015436;28;20044;-68
2023/10/31 10:20:56;;;;;;;5.40;0.70;;;11.70;99.90;;;;;;5032200;28;20496;-68
2023/10/31 10:23:23;;;;;;;3.47;0.70;;;11.70;99.90;;;;;;5031994;28;20600;-69
2023/10/31 10:25:49;;;;;;;3.10;0.70;;;11.70;99.90;;;;;;5031782;28;20102;-68
2023/10/31 10:28:15;;;;;;;3.30;0.60;;;11.70;99.90;;;;;;5031852;28;20046;-68
2023/10/31 10:30:41;;;;;;;3.72;0.77;;;11.70;99.90;;;;;;5031947;28;20405;-68
2023/10/31 10:33:07;;;;;;;3.00;0.85;;;11.70;99.90;;;;;;5031838;28;20042;-69
2023/10/31 10:35:34;;;;;;;2.20;0.60;;;11.70;99.90;;;;;;5031835;28;20052;-69
2023/10/31 10:38:01;;;;;;;2.63;0.60;;;11.70;99.90;;;;;;5031799;28;20116;-69
2023/10/31 10:40:27;;;;;;;2.78;0.70;;;11.70;99.90;;;;;;5031804;28;20133;-69
2023/10/31 10:42:59;;;;;;;2.60;0.70;;;11.70;99.90;;;;;;5031599;28;20076;-69
2023/10/31 10:45:25;;;;;;;4.30;0.82;;;11.70;99.90;;;;;;5031815;28;20060;-69
2023/10/31 10:47:53;;;;;;;2.83;0.70;;;11.70;99.90;;;;;;5033036;28;20124;-69
2023/10/31 10:50:20;;;;;;;2.70;0.60;;;11.70;99.90;;;;;;5015461;28;20042;-69
2023/10/31 10:53:13;;;;;;;3.72;0.80;;;11.70;99.90;;;;;;5031524;28;20045;-68
2023/10/31 10:55:40;;;;;;;;;;;11.60;99.90;;;;;;5032016;28;20158;-69
2023/10/31 10:58:21;;;;;;;2.03;0.63;;;11.50;99.90;;;;;;5048101;28;19923;-69
2023/10/31 11:00:48;;;;;;;4.68;0.80;;;11.40;99.90;;;;;;5048156;28;20037;-69
2023/10/31 11:03:14;;;;;;;3.58;0.70;;;11.40;99.90;;;;;;5015177;28;20079;-69
2023/10/31 11:05:41;;;;;;;3.10;0.80;;;11.50;99.90;;;;;;5031868;28;20564;-69
2023/10/31 11:08:07;;;;;;;4.53;0.80;;;11.50;99.90;;;;;;5032224;28;20033;-69
2023/10/31 11:10:33;;;;;;;6.13;1.02;;;11.50;99.90;;;;;;5031448;28;20041;-69
2023/10/31 11:12:58;;;;;;;6.35;1.00;;;11.40;99.90;;;;;;5031442;28;20085;-69
2023/10/31 11:15:26;;;;;;;3.40;0.70;;;11.50;99.90;;;;;;5031248;28;20083;-70
2023/10/31 11:17:54;;;;;;;5.82;1.00;;;11.50;99.90;;;;;;5031489;28;20038;-69
2023/10/31 11:20:20;;;;;;;5.40;1.00;;;11.50;99.90;;;;;;5018166;28;20095;-69
2023/10/31 11:22:51;;;;;;;22.63;13.85;;;11.60;99.90;;;;;;5035246;28;20394;-69
2023/10/31 11:25:23;;;;;;;25.63;14.07;;;11.60;99.90;;;;;;5035397;28;20485;-70
2023/10/31 11:27:57;;;;;;;8.40;4.18;;;11.70;99.90;;;;;;5035316;28;20042;-70
2023/10/31 11:30:30;;;;;;;19.42;12.63;;;11.80;99.90;;;;;;5034849;28;20048;-70
2023/10/31 11:32:59;;;;;;;7.25;1.75;;;11.80;99.90;;;;;;5034835;28;20045;-70
2023/10/31 11:35:25;;;;;;;7.65;1.95;;;11.90;99.90;;;;;;5034995;28;20498;-70
2023/10/31 11:38:05;;;;;;;18.27;11.07;;;11.90;99.90;;;;;;5034657;28;20120;-70
2023/10/31 11:40:31;;;;;;;15.70;14.07;;;12.00;99.90;;;;;;5034888;28;20037;-71
2023/10/31 11:42:58;;;;;;;6.35;1.73;;;12.00;99.90;;;;;;5018019;28;20038;-69
2023/10/31 11:45:47;;;;;;;7.97;1.73;;;12.00;99.90;;;;;;5034592;28;20059;-69
2023/10/31 11:48:13;;;;;;;6.47;1.20;;;12.00;99.90;;;;;;5034676;28;20045;-69
2023/10/31 11:50:40;;;;;;;5.60;1.08;;;12.00;99.90;;;;;;5034445;28;20045;-69
2023/10/31 11:53:07;;;;;;;6.07;1.20;;;12.00;99.90;;;;;;5034651;28;20041;-69
2023/10/31 11:55:41;;;;;;;9.10;1.23;;;12.00;99.90;;;;;;5034260;28;20077;-69
2023/10/31 11:58:18;;;;;;;5.95;1.05;;;11.90;99.90;;;;;;5034607;28;20485;-73
2023/10/31 12:00:45;;;;;;;5.65;0.98;;;11.90;99.90;;;;;;5034370;28;20106;-73
2023/10/31 12:03:11;;;;;;;7.15;1.10;;;11.90;99.90;;;;;;5034501;28;20043;-73
2023/10/31 12:05:37;;;;;;;6.18;1.10;;;11.90;99.90;;;;;;5034136;28;20124;-72
2023/10/31 12:08:03;;;;;;;5.25;0.93;;;11.90;99.90;;;;;;5034172;28;20041;-72
2023/10/31 12:10:32;;;;;;;6.10;1.05;;;11.90;99.90;;;;;;5017632;28;20120;-72
2023/10/31 12:12:58;;;;;;;5.22;1.08;;;11.90;99.90;;;;;;5034066;28;20045;-72
2023/10/31 12:15:25;;;;;;;4.55;1.00;;;11.90;99.90;;;;;;5013458;28;20118;-72
2023/10/31 12:17:51;;;;;;;5.03;1.10;;;11.90;99.90;;;;;;5054086;28;20048;-73
2023/10/31 12:20:17;;;;;;;3.97;0.93;;;11.90;99.90;;;;;;5053911;28;20045;-73
2023/10/31 12:22:43;;;;;;;4.13;0.80;;;11.90;99.90;;;;;;5053846;28;20123;-73
2023/10/31 12:25:11;;;;;;;6.78;1.13;;;11.90;99.90;;;;;;5054046;28;20037;-72
2023/10/31 12:27:44;;;;;;;6.18;1.10;;;11.90;99.90;;;;;;5053691;28;20084;-74
2023/10/31 12:30:11;;;;;;;5.70;1.13;;;11.90;99.90;;;;;;5036934;28;20044;-73
2023/10/31 12:32:37;;;;;;;4.20;0.88;;;11.90;99.90;;;;;;5053749;28;20067;-73
2023/10/31 12:35:04;;;;;;;6.35;1.17;;;11.80;99.90;;;;;;5055621;28;20033;-73
2023/10/31 12:37:30;;;;;;;6.35;1.30;;;11.80;99.90;;;;;;5040609;28;20044;-73
2023/10/31 12:39:57;;;;;;;7.18;1.60;;;11.80;99.90;;;;;;5057119;28;20393;-73